L'Orignal, Canada
Current Conditions -  °F | °C
As of 3:00 PM on Sunday 21 Dec 2014 (Local Time) from CYMX Reporting Station
Light Snow Light Snow  
Wind Chill:   Ceiling: 2100
Heat Index: 18°   Visibility: 10mi
Dew Point: 12°   Wind: 6mph
Humidity: 79%   Direction: 70°ENE
Pressure: 30.36"   Gusts: NA
Location:  45.62°N, 74.68°W
Report Text: CYMX 212000Z 07005KT 10SM -SN SCT015 OVC021 M08/M11 A3036 RMK SC3SC5 SLP287
Loading
Personal Weather Stations






























Interactive Weather Map New forecast layout! Learn more

10-Day Weather Forecast

Advertisements
Track Severe Weather on mobile